Terminal Aerodrome Forecast
Issued by NWS Sterling, VA

Current Version | Previous Version | Graphics & Text | Print | Product List | Glossary On
Versions: 1 2 3 4 5 6 7 8 9 10 11 12 13 14 15 16 17 18 19 20 21 22
233
FTUS41 KLWX 020541
TAFMRB
TAF
KMRB 020541Z 0206/0306 VRB03KT 2SM BR BKN003
     FM021500 21007KT P6SM BKN008
     FM021700 23009KT P6SM BKN015
     FM021900 25009KT P6SM VCTS BKN050CB
     FM030100 33004KT 5SM -SHRA OVC080
     FM030300 36004KT 3SM -SHRA OVC025=

USA.gov is the U.S. government's official web portal to all federal, state and local government web resources and services.